createdAt,value
2018-02-24T00:00:18.857Z,77.60
2018-02-24T00:02:46.389Z,77.50
2018-02-24T00:05:14.002Z,77.30
2018-02-24T00:07:42.302Z,77.30
2018-02-24T00:10:09.830Z,77.20
2018-02-24T00:12:37.427Z,77.20
2018-02-24T00:15:05.781Z,77.50
2018-02-24T00:17:33.359Z,78.10
2018-02-24T00:20:00.894Z,77.60
2018-02-24T00:22:29.252Z,78.20
2018-02-24T00:24:57.558Z,78.40
2018-02-24T00:27:25.141Z,78.40
2018-02-24T00:29:52.683Z,78.50
2018-02-24T00:32:20.973Z,77.90
2018-02-24T00:34:49.305Z,78.20
2018-02-24T00:37:16.858Z,78.20
2018-02-24T00:39:44.378Z,78.10
2018-02-24T00:42:11.931Z,78.30
2018-02-24T00:44:39.454Z,78.50
2018-02-24T00:47:07.012Z,78.20
2018-02-24T00:49:35.309Z,78.70
2018-02-24T00:52:07.472Z,78.50
2018-02-24T00:54:35.004Z,78.60
2018-02-24T00:57:02.556Z,78.80
2018-02-24T00:59:30.087Z,78.70
2018-02-24T01:01:57.642Z,78.20
2018-02-24T01:04:25.170Z,78.80
2018-02-24T01:06:52.742Z,79.00
2018-02-24T01:09:20.256Z,78.60
2018-02-24T01:11:48.568Z,78.00
2018-02-24T01:14:16.838Z,78.40
2018-02-24T01:16:44.426Z,78.20
2018-02-24T01:19:11.987Z,78.50
2018-02-24T01:24:50.493Z,77.80
2018-02-24T01:27:18.013Z,77.70
2018-02-24T01:29:45.520Z,78.00
2018-02-24T01:32:13.117Z,78.10
2018-02-24T01:34:40.624Z,78.10
2018-02-24T01:37:08.147Z,78.00
2018-02-24T01:39:35.693Z,78.50
2018-02-24T01:42:04.028Z,78.20
2018-02-24T01:44:31.541Z,78.10
2018-02-24T01:46:59.090Z,78.20
2018-02-24T01:49:26.690Z,78.40
2018-02-24T01:51:57.983Z,78.30
2018-02-24T01:54:25.509Z,78.70
2018-02-24T01:57:07.047Z,78.60
2018-02-24T01:59:34.589Z,78.50
2018-02-24T02:02:02.389Z,78.70
2018-02-24T02:04:30.687Z,79.40
2018-02-24T02:06:58.246Z,79.20
2018-02-24T02:09:26.545Z,79.40
2018-02-24T02:11:54.068Z,79.30
2018-02-24T02:14:21.614Z,79.70
2018-02-24T02:16:49.145Z,79.80
2018-02-24T02:19:16.714Z,79.80
2018-02-24T02:21:44.989Z,80.00
2018-02-24T02:24:12.546Z,79.90
2018-02-24T02:26:40.107Z,79.70
2018-02-24T02:29:07.662Z,79.60
2018-02-24T02:31:35.180Z,79.90
2018-02-24T02:34:09.176Z,80.30
2018-02-24T02:36:42.097Z,80.10
2018-02-24T02:39:15.039Z,81.10
2018-02-24T02:41:42.553Z,81.10
2018-02-24T02:44:10.104Z,80.80
2018-02-24T02:46:37.607Z,80.40
2018-02-24T02:49:05.141Z,80.30
2018-02-24T02:51:32.668Z,80.50
2018-02-24T02:54:00.201Z,80.50
2018-02-24T02:56:27.726Z,80.40
2018-02-24T02:58:55.337Z,80.30
2018-02-24T03:01:22.883Z,81.10
2018-02-24T03:03:52.468Z,81.30
2018-02-24T03:06:20.794Z,80.60
2018-02-24T03:08:48.338Z,80.50
2018-02-24T03:11:15.857Z,80.80
2018-02-24T03:13:43.385Z,80.90
2018-02-24T03:16:10.912Z,81.80
2018-02-24T03:18:38.455Z,81.30
2018-02-24T03:21:05.975Z,81.50
2018-02-24T03:23:34.293Z,81.30
2018-02-24T03:26:01.798Z,81.20
2018-02-24T03:28:29.325Z,81.60
2018-02-24T03:30:57.599Z,81.20
2018-02-24T03:33:25.883Z,81.40
2018-02-24T03:35:54.164Z,81.50
2018-02-24T03:38:21.691Z,81.50
2018-02-24T03:40:49.196Z,81.30
2018-02-24T03:43:16.712Z,81.10
2018-02-24T03:45:44.766Z,81.00
2018-02-24T03:48:13.053Z,81.50
2018-02-24T03:50:41.323Z,81.90
2018-02-24T03:53:08.857Z,81.10
2018-02-24T03:55:36.348Z,81.00
2018-02-24T03:58:03.872Z,81.00
2018-02-24T04:00:43.990Z,80.70
2018-02-24T04:03:11.523Z,80.70
2018-02-24T04:05:39.023Z,81.00
2018-02-24T04:08:06.537Z,81.00
2018-02-24T04:10:34.849Z,81.00
2018-02-24T04:13:02.372Z,80.80
2018-02-24T04:15:29.905Z,81.20
2018-02-24T04:17:57.441Z,81.20
2018-02-24T04:20:25.737Z,81.40
2018-02-24T04:22:54.023Z,81.20
2018-02-24T04:25:22.292Z,81.20
2018-02-24T04:27:49.824Z,81.20
2018-02-24T04:30:17.312Z,81.20
2018-02-24T04:32:44.840Z,81.40
2018-02-24T04:35:12.335Z,81.20
2018-02-24T04:37:39.851Z,81.40
2018-02-24T04:40:07.365Z,81.40
2018-02-24T04:42:34.896Z,81.00
2018-02-24T04:45:02.383Z,81.00
2018-02-24T04:47:29.905Z,81.40
2018-02-24T04:49:57.430Z,81.40
2018-02-24T04:52:24.931Z,81.60
2018-02-24T04:54:52.450Z,81.50
2018-02-24T04:57:20.719Z,81.20
2018-02-24T04:59:49.843Z,81.50
2018-02-24T05:02:17.353Z,81.40
2018-02-24T05:04:44.876Z,81.50
2018-02-24T05:07:12.797Z,81.60
2018-02-24T05:09:40.312Z,81.70
2018-02-24T05:12:07.815Z,81.60
2018-02-24T05:14:36.100Z,81.50
2018-02-24T05:17:03.600Z,81.30
2018-02-24T05:19:31.107Z,81.40
2018-02-24T05:21:58.595Z,81.40
2018-02-24T05:24:26.111Z,81.60
2018-02-24T05:26:53.619Z,81.70
2018-02-24T05:29:21.122Z,81.60
2018-02-24T05:31:49.373Z,82.20
2018-02-24T05:34:16.928Z,82.10
2018-02-24T05:36:44.420Z,82.00
2018-02-24T05:39:11.927Z,81.80
2018-02-24T05:41:40.182Z,82.10
2018-02-24T05:44:07.700Z,82.10
2018-02-24T05:46:35.194Z,82.30
2018-02-24T05:49:02.709Z,85.90
2018-02-24T05:51:40.351Z,83.90
2018-02-24T05:54:07.868Z,84.00
2018-02-24T05:56:35.357Z,85.20
2018-02-24T05:59:02.872Z,84.90
2018-02-24T06:01:30.362Z,83.80
2018-02-24T06:03:57.868Z,84.30
2018-02-24T06:06:25.364Z,84.00
2018-02-24T06:08:53.648Z,84.50
2018-02-24T06:11:21.924Z,83.70
2018-02-24T06:13:49.437Z,84.30
2018-02-24T06:16:16.927Z,83.60
2018-02-24T06:18:44.446Z,83.40
2018-02-24T06:21:12.719Z,82.80
2018-02-24T06:23:40.237Z,82.80
2018-02-24T06:26:07.731Z,82.60
2018-02-24T06:28:35.244Z,82.20
2018-02-24T06:31:22.272Z,82.50
2018-02-24T06:33:51.563Z,82.60
2018-02-24T06:36:19.063Z,82.50
2018-02-24T06:38:47.361Z,82.50
2018-02-24T06:41:14.859Z,82.40
2018-02-24T06:43:42.388Z,82.60
2018-02-24T06:46:10.653Z,82.40
2018-02-24T06:48:38.175Z,82.30
2018-02-24T06:51:05.664Z,82.50
2018-02-24T06:53:33.162Z,82.60
2018-02-24T06:56:00.675Z,82.50
2018-02-24T06:58:28.176Z,82.30
2018-02-24T07:00:55.691Z,82.20
2018-02-24T07:03:23.196Z,81.90
2018-02-24T07:05:50.723Z,81.60
2018-02-24T07:08:18.220Z,81.90
2018-02-24T07:10:45.744Z,81.80
2018-02-24T07:13:13.232Z,81.90
2018-02-24T07:15:40.748Z,81.50
2018-02-24T07:18:08.235Z,81.00
2018-02-24T07:20:35.759Z,80.40
2018-02-24T07:23:04.027Z,79.30
2018-02-24T07:25:31.535Z,79.20
2018-02-24T07:27:59.047Z,78.90
2018-02-24T07:30:26.562Z,78.10
2018-02-24T07:32:54.818Z,77.30
2018-02-24T07:35:22.332Z,77.10
2018-02-24T07:37:50.591Z,76.20
2018-02-24T07:40:18.111Z,76.20
2018-02-24T07:42:45.617Z,75.70
2018-02-24T07:45:13.927Z,74.60
2018-02-24T07:47:41.415Z,74.60
2018-02-24T07:50:09.691Z,73.80
2018-02-24T07:52:49.784Z,72.80
2018-02-24T07:55:17.300Z,72.60
2018-02-24T07:57:44.808Z,72.40
2018-02-24T08:00:12.320Z,70.70
2018-02-24T08:02:39.808Z,70.40
2018-02-24T08:05:07.307Z,69.90
2018-02-24T08:07:35.568Z,69.80
2018-02-24T08:10:03.073Z,69.40
2018-02-24T08:12:31.319Z,67.80
2018-02-24T08:14:58.836Z,67.70
2018-02-24T08:17:27.083Z,66.20
2018-02-24T08:19:54.583Z,66.20
2018-02-24T08:22:22.068Z,65.80
2018-02-24T08:24:50.346Z,65.20
2018-02-24T08:27:18.603Z,64.70
2018-02-24T08:29:46.104Z,64.70
2018-02-24T08:32:14.359Z,62.90
2018-02-24T08:34:41.863Z,62.90
2018-02-24T08:37:10.108Z,62.50
2018-02-24T08:39:37.620Z,62.40
2018-02-24T08:42:05.115Z,61.50
2018-02-24T08:44:32.619Z,61.80
2018-02-24T08:47:00.113Z,60.80
2018-02-24T08:49:27.615Z,60.50
2018-02-24T08:51:55.861Z,59.30
2018-02-24T08:54:23.358Z,59.20
2018-02-24T08:56:51.607Z,60.00
2018-02-24T08:59:19.203Z,59.20
2018-02-24T09:01:46.691Z,58.30
2018-02-24T09:04:14.969Z,56.70
2018-02-24T09:06:43.228Z,56.50
2018-02-24T09:09:10.721Z,56.00
2018-02-24T09:11:39.204Z,55.80
2018-02-24T09:14:19.516Z,55.10
2018-02-24T09:16:47.031Z,55.90
2018-02-24T09:19:14.520Z,55.30
2018-02-24T09:21:42.023Z,54.50
2018-02-24T09:24:10.275Z,53.00
2018-02-24T09:26:37.790Z,52.90
2018-02-24T09:29:05.270Z,53.40
2018-02-24T09:31:32.780Z,51.60
2018-02-24T09:34:00.297Z,51.10
2018-02-24T09:36:28.569Z,50.90
2018-02-24T09:42:14.003Z,49.70
2018-02-24T09:44:42.279Z,49.40
2018-02-24T09:47:09.778Z,49.30
2018-02-24T09:49:37.281Z,50.20
2018-02-24T09:52:04.763Z,49.20
2018-02-24T09:54:32.263Z,48.70
2018-02-24T09:57:12.429Z,48.30
2018-02-24T09:59:42.643Z,47.70
2018-02-24T10:02:10.169Z,48.20
2018-02-24T10:04:37.682Z,48.40
2018-02-24T10:07:05.163Z,47.30
2018-02-24T10:09:32.668Z,47.40
2018-02-24T10:12:00.188Z,47.40
2018-02-24T10:14:27.688Z,47.40
2018-02-24T10:16:55.976Z,48.10
2018-02-24T10:19:35.772Z,46.30
2018-02-24T10:22:03.256Z,46.70
2018-02-24T10:27:28.609Z,46.90
2018-02-24T10:29:56.136Z,46.50
2018-02-24T10:32:24.387Z,45.30
2018-02-24T10:34:51.964Z,45.30
2018-02-24T10:37:19.473Z,45.20
2018-02-24T10:39:47.756Z,45.50
2018-02-24T10:42:16.016Z,45.20
2018-02-24T10:44:43.556Z,45.20
2018-02-24T10:47:11.065Z,45.70
2018-02-24T10:49:38.531Z,45.30
2018-02-24T10:52:06.062Z,45.00
2018-02-24T10:54:33.544Z,45.10
2018-02-24T10:57:01.053Z,45.70
2018-02-24T10:59:28.527Z,45.90
2018-02-24T11:01:56.027Z,45.90
2018-02-24T11:04:23.506Z,46.10
2018-02-24T11:06:51.907Z,46.40
2018-02-24T11:09:19.389Z,46.30
2018-02-24T11:11:46.892Z,46.40
2018-02-24T11:14:14.374Z,46.50
2018-02-24T11:16:41.892Z,46.40
2018-02-24T11:19:09.374Z,46.70
2018-02-24T11:21:36.899Z,46.30
2018-02-24T11:24:04.400Z,46.90
2018-02-24T11:26:31.911Z,47.50
2018-02-24T11:29:00.189Z,46.70
2018-02-24T11:31:27.724Z,46.60
2018-02-24T11:33:55.244Z,47.30
2018-02-24T11:36:22.749Z,47.20
2018-02-24T11:38:50.228Z,47.50
2018-02-24T11:41:17.732Z,48.00
2018-02-24T11:43:45.211Z,48.30
2018-02-24T11:46:12.720Z,48.00
2018-02-24T11:48:40.960Z,48.20
2018-02-24T11:51:21.279Z,48.10
2018-02-24T11:53:48.767Z,48.40
2018-02-24T11:56:16.263Z,48.90
2018-02-24T11:58:43.750Z,49.20
2018-02-24T12:01:11.248Z,48.80
2018-02-24T12:03:39.976Z,49.50
2018-02-24T12:06:07.481Z,49.50
2018-02-24T12:08:34.971Z,49.40
2018-02-24T12:11:02.471Z,48.90
2018-02-24T12:13:30.727Z,49.40
2018-02-24T12:15:58.232Z,49.30
2018-02-24T12:18:25.716Z,49.20
2018-02-24T12:20:53.210Z,49.70
2018-02-24T12:23:20.690Z,50.20
2018-02-24T12:25:48.192Z,50.00
2018-02-24T12:28:15.684Z,49.80
2018-02-24T12:30:43.187Z,50.40
2018-02-24T12:33:10.678Z,50.20
2018-02-24T12:35:38.183Z,50.10
2018-02-24T12:38:06.432Z,50.50
2018-02-24T12:40:33.939Z,50.50
2018-02-24T12:43:02.183Z,50.30
2018-02-24T12:45:29.684Z,50.30
2018-02-24T12:47:57.176Z,50.80
2018-02-24T12:50:25.443Z,51.20
2018-02-24T12:52:52.927Z,51.10
2018-02-24T12:55:21.198Z,51.40
2018-02-24T12:57:48.685Z,51.40
2018-02-24T13:00:16.955Z,51.60
2018-02-24T13:02:44.442Z,51.60
2018-02-24T13:05:12.681Z,52.40
2018-02-24T13:07:40.179Z,52.30
2018-02-24T13:10:07.720Z,53.00
2018-02-24T13:12:35.267Z,53.50
2018-02-24T13:15:02.743Z,54.10
2018-02-24T13:17:30.248Z,54.50
2018-02-24T13:19:57.784Z,54.50
2018-02-24T13:22:26.015Z,55.50
2018-02-24T13:24:53.497Z,54.90
2018-02-24T13:27:20.999Z,55.50
2018-02-24T13:29:48.511Z,55.70
2018-02-24T13:32:16.023Z,56.40
2018-02-24T13:34:44.366Z,57.10
2018-02-24T13:37:11.886Z,57.00
2018-02-24T13:39:40.139Z,58.00
2018-02-24T13:42:07.652Z,58.00
2018-02-24T13:44:35.130Z,58.30
2018-02-24T13:47:02.636Z,58.60
2018-02-24T13:49:30.111Z,58.60
2018-02-24T13:51:57.618Z,59.10
2018-02-24T13:54:25.867Z,59.80
2018-02-24T13:56:53.378Z,59.70
2018-02-24T13:59:21.631Z,60.70
2018-02-24T14:01:49.140Z,60.70
2018-02-24T14:04:17.393Z,61.20
2018-02-24T14:06:44.897Z,61.20
2018-02-24T14:09:13.153Z,61.60
2018-02-24T14:11:40.655Z,61.60
2018-02-24T14:14:08.897Z,61.40
2018-02-24T14:16:37.394Z,61.40
2018-02-24T14:19:04.879Z,61.10
2018-02-24T14:21:32.381Z,61.30
2018-02-24T14:23:59.862Z,61.60
2018-02-24T14:26:27.367Z,61.30
2018-02-24T14:28:54.846Z,61.40
2018-02-24T14:31:24.363Z,61.60
2018-02-24T14:33:57.772Z,61.40
2018-02-24T14:36:25.270Z,62.00
2018-02-24T14:38:54.753Z,61.90
2018-02-24T14:41:22.253Z,62.40
2018-02-24T14:43:49.744Z,61.60
2018-02-24T14:46:18.012Z,61.10
2018-02-24T14:48:45.494Z,61.00
2018-02-24T14:51:13.751Z,59.80
2018-02-24T14:53:41.232Z,59.80
2018-02-24T14:56:08.743Z,56.70
2018-02-24T14:58:36.242Z,54.40
2018-02-24T15:01:03.752Z,55.10
2018-02-24T15:03:31.226Z,53.60
2018-02-24T15:05:59.492Z,53.70
2018-02-24T15:08:27.968Z,53.40
2018-02-24T15:10:55.467Z,53.40
2018-02-24T15:13:22.966Z,53.60
2018-02-24T15:15:51.236Z,54.90
2018-02-24T15:18:18.715Z,54.80
2018-02-24T15:20:46.998Z,55.90
2018-02-24T15:23:15.349Z,55.20
2018-02-24T15:25:42.847Z,55.10
2018-02-24T15:28:10.360Z,54.20
2018-02-24T15:30:37.839Z,53.60
2018-02-24T15:33:05.348Z,53.70
2018-02-24T15:35:34.746Z,53.50
2018-02-24T15:38:02.254Z,53.00
2018-02-24T15:40:30.500Z,50.30
2018-02-24T15:42:58.012Z,50.20
2018-02-24T15:45:25.496Z,50.10
2018-02-24T15:47:53.008Z,50.50
2018-02-24T15:50:20.500Z,50.50
2018-02-24T15:52:48.008Z,50.50
2018-02-24T15:55:15.488Z,49.90
2018-02-24T15:57:42.987Z,49.80
2018-02-24T16:00:10.485Z,49.60
2018-02-24T16:02:37.999Z,49.40
2018-02-24T16:05:06.415Z,49.80
2018-02-24T16:07:33.928Z,49.30
2018-02-24T16:10:01.409Z,48.90
2018-02-24T16:12:29.667Z,49.50
2018-02-24T16:14:57.152Z,49.50
2018-02-24T16:17:25.442Z,49.90
2018-02-24T16:19:52.932Z,49.80
2018-02-24T16:22:21.206Z,50.20
2018-02-24T16:24:49.464Z,50.60
2018-02-24T16:27:16.964Z,50.60
2018-02-24T16:29:44.442Z,50.30
2018-02-24T16:32:11.945Z,50.40
2018-02-24T16:34:39.437Z,52.00
2018-02-24T16:37:06.937Z,52.60
2018-02-24T16:39:34.424Z,53.10
2018-02-24T16:42:01.924Z,54.20
2018-02-24T16:44:29.416Z,54.20
2018-02-24T16:46:56.920Z,55.10
2018-02-24T16:49:24.406Z,55.60
2018-02-24T16:51:52.681Z,57.50
2018-02-24T16:54:20.171Z,57.50
2018-02-24T16:56:48.439Z,58.10
2018-02-24T16:59:15.924Z,58.00
2018-02-24T17:01:44.193Z,58.00
2018-02-24T17:04:11.674Z,58.00
2018-02-24T17:06:39.944Z,58.10
2018-02-24T17:09:07.450Z,58.00
2018-02-24T17:11:34.952Z,58.00
2018-02-24T17:14:02.434Z,58.00
2018-02-24T17:16:29.952Z,58.30
2018-02-24T17:18:58.191Z,58.20
2018-02-24T17:21:25.696Z,58.20
2018-02-24T17:23:53.952Z,58.70
2018-02-24T17:26:21.440Z,58.30
2018-02-24T17:28:48.947Z,58.40
2018-02-24T17:31:16.427Z,58.60
2018-02-24T17:33:43.936Z,59.20
2018-02-24T17:36:11.440Z,59.40
2018-02-24T17:38:39.727Z,60.20
2018-02-24T17:41:07.986Z,60.40
2018-02-24T17:43:35.484Z,60.30
2018-02-24T17:46:02.959Z,60.80
2018-02-24T17:48:31.228Z,60.60
2018-02-24T17:50:58.708Z,60.40
2018-02-24T17:53:26.216Z,60.10
2018-02-24T17:55:53.709Z,60.40
2018-02-24T17:58:21.210Z,60.70
2018-02-24T18:00:48.692Z,60.60
2018-02-24T18:03:16.965Z,60.80
2018-02-24T18:05:44.451Z,60.60
2018-02-24T18:08:11.968Z,61.60
2018-02-24T18:10:40.202Z,60.70
2018-02-24T18:13:07.708Z,60.70
2018-02-24T18:15:35.183Z,61.40
2018-02-24T18:18:02.684Z,60.70
2018-02-24T18:20:30.164Z,60.90
2018-02-24T18:22:57.697Z,61.00
2018-02-24T18:25:25.943Z,61.50
2018-02-24T18:27:53.444Z,60.70
2018-02-24T18:30:20.932Z,60.90
2018-02-24T18:32:49.212Z,61.00
2018-02-24T18:35:16.694Z,60.90
2018-02-24T18:37:44.203Z,60.90
2018-02-24T18:40:11.728Z,61.00
2018-02-24T18:42:39.248Z,61.30
2018-02-24T18:45:06.735Z,61.20
2018-02-24T18:47:35.015Z,61.00
2018-02-24T18:50:03.270Z,61.10
2018-02-24T18:52:30.785Z,60.90
2018-02-24T18:54:59.031Z,60.60
2018-02-24T18:57:26.532Z,60.60
2018-02-24T18:59:54.012Z,60.60
2018-02-24T19:02:22.280Z,59.80
2018-02-24T19:04:50.543Z,59.80
2018-02-24T19:07:18.045Z,59.70
2018-02-24T19:09:45.525Z,59.80
2018-02-24T19:12:13.792Z,59.10
2018-02-24T19:14:41.268Z,59.00
2018-02-24T19:17:08.784Z,59.20
2018-02-24T19:19:36.288Z,58.80
2018-02-24T19:22:03.779Z,58.80
2018-02-24T19:24:31.256Z,58.30
2018-02-24T19:26:58.764Z,58.30
2018-02-24T19:29:26.245Z,58.10
2018-02-24T19:31:53.735Z,57.80
2018-02-24T19:34:21.235Z,57.50
2018-02-24T19:36:49.683Z,57.50
2018-02-24T19:39:17.180Z,56.50
2018-02-24T19:41:44.655Z,56.30
2018-02-24T19:44:12.157Z,56.60
2018-02-24T19:46:40.404Z,56.50
2018-02-24T19:49:07.900Z,56.40
2018-02-24T19:51:36.144Z,55.90
2018-02-24T19:54:03.639Z,56.40
2018-02-24T19:56:31.146Z,55.70
2018-02-24T19:58:59.419Z,55.60
2018-02-24T20:01:27.688Z,55.60
2018-02-24T20:03:55.204Z,55.60
2018-02-24T20:06:22.683Z,55.60
2018-02-24T20:08:50.187Z,55.40
2018-02-24T20:11:17.690Z,55.20
2018-02-24T20:13:45.960Z,55.80
2018-02-24T20:16:13.439Z,55.80
2018-02-24T20:18:40.941Z,55.90
2018-02-24T20:21:08.424Z,55.90
2018-02-24T20:23:35.932Z,56.00
2018-02-24T20:26:03.405Z,55.90
2018-02-24T20:28:30.902Z,55.90
2018-02-24T20:30:59.201Z,56.20
2018-02-24T20:33:27.464Z,56.60
2018-02-24T20:35:54.945Z,56.50
2018-02-24T20:38:23.212Z,56.90
2018-02-24T20:40:50.701Z,56.80
2018-02-24T20:43:18.980Z,56.80
2018-02-24T20:45:46.456Z,56.70
2018-02-24T20:48:13.962Z,56.90
2018-02-24T20:50:41.459Z,56.80
2018-02-24T20:53:08.962Z,56.90
2018-02-24T20:55:36.451Z,56.90
2018-02-24T20:58:04.719Z,57.20
2018-02-24T21:00:32.194Z,57.10
2018-02-24T21:03:00.461Z,57.40
2018-02-24T21:05:27.952Z,57.20
2018-02-24T21:07:55.447Z,58.00
2018-02-24T21:10:22.920Z,58.70
2018-02-24T21:12:50.434Z,58.10
2018-02-24T21:15:17.915Z,58.20
2018-02-24T21:17:45.410Z,58.40
2018-02-24T21:20:13.656Z,58.40
2018-02-24T21:22:41.163Z,58.40
2018-02-24T21:25:08.643Z,58.40
2018-02-24T21:27:36.908Z,58.80
2018-02-24T21:30:04.396Z,58.70
2018-02-24T21:32:32.661Z,58.90
2018-02-24T21:35:00.209Z,58.90
2018-02-24T21:37:28.428Z,59.20
2018-02-24T21:39:55.920Z,59.00
2018-02-24T21:42:24.172Z,59.10
2018-02-24T21:44:51.676Z,59.00
2018-02-24T21:47:19.940Z,59.20
2018-02-24T21:49:47.447Z,58.90
2018-02-24T21:52:14.919Z,59.30
2018-02-24T21:54:42.419Z,59.50
2018-02-24T21:57:09.910Z,59.90
2018-02-24T21:59:37.416Z,59.70
2018-02-24T22:02:06.660Z,59.80
2018-02-24T22:04:34.166Z,59.70
2018-02-24T22:07:01.664Z,59.60
2018-02-24T22:09:29.949Z,60.00
2018-02-24T22:11:58.203Z,60.20
2018-02-24T22:14:25.692Z,60.10
2018-02-24T22:16:53.189Z,60.40
2018-02-24T22:19:21.451Z,60.70
2018-02-24T22:21:48.932Z,60.70
2018-02-24T22:24:17.194Z,60.70
2018-02-24T22:26:44.680Z,60.60
2018-02-24T22:29:12.185Z,60.80
2018-02-24T22:31:39.683Z,60.90
2018-02-24T22:34:07.178Z,61.00
2018-02-24T22:36:34.667Z,60.50
2018-02-24T22:39:02.943Z,61.00
2018-02-24T22:41:30.424Z,61.00
2018-02-24T22:43:58.695Z,61.00
2018-02-24T22:46:26.183Z,60.90
2018-02-24T22:48:59.319Z,61.10
2018-02-24T22:51:26.812Z,61.50
2018-02-24T22:53:54.327Z,61.30
2018-02-24T22:56:22.595Z,61.30
2018-02-24T22:58:50.103Z,61.10
2018-02-24T23:01:18.351Z,61.40
2018-02-24T23:03:45.851Z,61.40
2018-02-24T23:06:14.100Z,61.90
2018-02-24T23:08:41.603Z,61.70
2018-02-24T23:11:09.086Z,62.10
2018-02-24T23:13:36.608Z,62.50
2018-02-24T23:16:04.096Z,62.50
2018-02-24T23:18:31.596Z,62.30
2018-02-24T23:20:59.854Z,62.40
2018-02-24T23:23:27.356Z,62.30
2018-02-24T23:25:55.608Z,62.80
2018-02-24T23:28:23.112Z,62.80
2018-02-24T23:30:51.364Z,62.40
2018-02-24T23:33:18.870Z,62.30
2018-02-24T23:35:47.120Z,63.00
2018-02-24T23:38:14.619Z,62.90
2018-02-24T23:40:42.103Z,63.10
2018-02-24T23:43:10.380Z,62.70
2018-02-24T23:45:38.637Z,62.60
2018-02-24T23:48:06.138Z,62.60
2018-02-24T23:50:34.382Z,63.10
2018-02-24T23:53:02.632Z,63.10
2018-02-24T23:55:30.127Z,63.00
2018-02-24T23:57:57.620Z,62.80
